Stations météo

réclame
Mon MeteoGroup
Großer Arber, Allemagne (10791): Température de l'air & dewpoint: 13.07.2019 21:00:00 - 19.07.2019 21:00:00 (CEST)Großer Arber, Allemagne (10791): Vitesse du vent & gusts: 13.07.2019 21:00:00 - 19.07.2019 21:00:00 (CEST)Großer Arber, Allemagne (10791): Direction du vent: 13.07.2019 21:00:00 - 19.07.2019 21:00:00 (CEST)Großer Arber, Allemagne (10791): visibility: 13.07.2019 21:00:00 - 19.07.2019 21:00:00 (CEST)Großer Arber, Allemagne (10791): Ensoleillement: 13.07.2019 21:00:00 - 19.07.2019 21:00:00 (CEST)Großer Arber, Allemagne (10791): Quantités de précipitations: 13.07.2019 21:00:00 - 19.07.2019 21:00:00 (CEST)
Date & Time tt [°C] td [°C] ff [km/h] ff [knt] fx [km/h] fx [knt] dd vv [km] sd [min] rr [mm]
19.07.2019 21:00:00 14,1 9,9 15 8 19 10 SW 31 0 0,0
19.07.2019 20:00:00 14,9 10,3 11 6 17 9 SW 30 15 0,0
19.07.2019 19:00:00 16,0 10,4 12 6 20 11 SW 28 34 0,0
19.07.2019 18:00:00 14,7 10,7 13 7 28 15 WSW 10 8 0,1
19.07.2019 17:00:00 16,7 10,1 13 7 26 14 SW 38 32 0,0
19.07.2019 16:00:00 16,5 9,3 14 8 27 15 WSW 53 0 0,0
19.07.2019 15:00:00 16,4 8,2 17 9 32 17 WSW 56 28 0,0
19.07.2019 14:00:00 16,2 8,7 20 11 33 18 SW 63 15 0,0
19.07.2019 13:00:00 16,2 8,7 18 10 32 17 SW 38 47 0,0
19.07.2019 12:00:00 15,6 9,2 20 11 31 17 WSW 44 40 0,0
19.07.2019 11:00:00 14,9 8,5 16 9 34 18 WSW 49 46 0,0
19.07.2019 10:00:00 14,3 7,8 20 11 29 16 SW 54 22 0,0
19.07.2019 09:00:00 14,7 7,5 19 10 29 16 WSW 45 43 0,0
19.07.2019 08:00:00 13,4 7,2 22 12 32 18 W 41 6 0,0
19.07.2019 07:00:00 11,7 8,0 21 12 31 17 WNW 31 0 0,1
19.07.2019 06:00:00 12,3 6,4 15 8 34 19 WNW 44 0 0,0
19.07.2019 05:00:00 12,9 5,8 18 10 26 14 WNW 48 0 0,0
19.07.2019 04:00:00 12,7 7,1 14 7 21 11 WNW 34 0 0,0
19.07.2019 03:00:00 13,5 6,5 15 8 22 12 WNW 47 0 0,0
19.07.2019 02:00:00 13,4 6,3 13 7 19 10 W 52 0 0,0
19.07.2019 01:00:00 13,7 6,4 10 5 23 12 WSW 52 0 0,0
19.07.2019 00:00:00 13,9 6,4 19 10 26 14 SW 51 0 0,0
18.07.2019 23:00:00 14,6 6,2 21 11 26 14 WSW 52 0 0,0
18.07.2019 22:00:00 14,5 6,1 16 8 19 11 SW 51 0 0,0
18.07.2019 21:00:00 14,8 5,7 8 5 13 7 SSW 53 6 0,0
18.07.2019 20:00:00 16,0 6,1 9 5 20 11 WSW 44 55 0,0
18.07.2019 19:00:00 17,0 6,4 15 8 24 13 WSW 58 53 0,0
18.07.2019 18:00:00 17,0 6,2 15 8 27 14 WSW 39 25 0,0
18.07.2019 17:00:00 16,9 5,9 14 7 29 16 W 54 35 0,0
18.07.2019 16:00:00 15,5 6,4 16 8 33 18 W 48 19 0,0
18.07.2019 15:00:00 17,5 5,2 18 10 35 19 W 53 55 0,0
18.07.2019 14:00:00 17,7 6,5 16 9 35 19 W 53 40 0,0
18.07.2019 13:00:00 17,5 5,2 13 7 32 17 WNW 55 59 0,0
18.07.2019 12:00:00 15,9 5,5 17 9 32 17 WSW 54 45 0,0
18.07.2019 11:00:00 13,9 7,0 11 6 25 13 NW 47 37 0,0
18.07.2019 10:00:00 13,9 7,2 9 5 20 11 WNW 44 37 0,0
18.07.2019 09:00:00 13,6 7,5 9 5 22 12 NNW 68 54 0,0
18.07.2019 08:00:00 12,7 6,3 13 7 24 13 WNW 40 60 0,0
18.07.2019 07:00:00 11,9 5,9 16 9 26 14 WNW 45 15 0,0
18.07.2019 06:00:00 11,3 5,8 18 10 32 17 WNW 38 0 0,0
18.07.2019 05:00:00 11,4 5,9 21 11 31 17 WNW 46 0 0,0
18.07.2019 04:00:00 11,6 5,7 22 12 32 18 W 62 0 0,0
18.07.2019 03:00:00 11,7 5,8 21 11 29 16 W 66 0 0,0
18.07.2019 02:00:00 11,4 6,7 19 10 23 12 WSW 52 0 0,0
18.07.2019 01:00:00 11,2 5,6 11 6 14 7 W 59 0 0,0
18.07.2019 00:00:00 12,3 7,2 6 3 11 6 NW 56 0 0,0
17.07.2019 23:00:00 12,2 7,2 9 5 18 10 N 55 0 0,0
17.07.2019 22:00:00 12,4 6,5 15 8 22 12 NW 59 0 0,0
17.07.2019 21:00:00 13,3 7,2 15 8 21 11 NW 55 27 0,0
17.07.2019 20:00:00 15,6 7,9 16 9 23 12 NNW 56 40 0,0
17.07.2019 19:00:00 15,8 8,0 10 5 23 12 N 75 26 0,0
17.07.2019 18:00:00 17,5 8,1 10 5 25 13 W 51 51 0,0
17.07.2019 17:00:00 18,3 9,0 14 7 29 15 WNW 39 59 0,0
17.07.2019 16:00:00 17,6 8,7 11 6 27 15 WNW 59 48 0,0
17.07.2019 15:00:00 17,4 9,5 10 5 23 12 NNW 53 30 0,0
17.07.2019 14:00:00 17,3 8,0 14 8 29 15 NW 56 56 0,0
17.07.2019 13:00:00 15,5 6,1 10 6 28 15 WNW 73 59 0,0
17.07.2019 12:00:00 14,6 8,0 13 7 30 16 WNW 64 59 0,0
17.07.2019 11:00:00 14,5 8,7 15 8 31 17 WNW 51 58 0,0
17.07.2019 10:00:00 13,4 8,5 16 8 29 15 W 43 60 0,0
17.07.2019 09:00:00 12,4 7,8 16 9 26 14 W 68 60 0,0
17.07.2019 08:00:00 11,7 7,4 13 7 26 14 W 51 59 0,0
17.07.2019 07:00:00 10,5 7,0 16 9 24 13 W 44 13 0,0
17.07.2019 06:00:00 9,9 6,4 17 9 22 12 WNW 60 5 0,0
17.07.2019 05:00:00 10,0 6,3 17 9 24 13 WNW 49 0 0,0
17.07.2019 04:00:00 10,2 6,3 16 9 24 13 W 49 0 0,0
17.07.2019 03:00:00 10,5 6,2 17 9 23 12 WNW 71 0 0,0
17.07.2019 02:00:00 9,7 6,5 17 9 23 12 NW 75 0 0,0
17.07.2019 01:00:00 9,7 6,5 20 11 33 18 NW 63 0 0,0
17.07.2019 00:00:00 10,6 6,6 26 14 34 18 NW 58 0 0,0
16.07.2019 23:00:00 10,8 6,6 27 15 36 19 NW 66 0 0,0
16.07.2019 22:00:00 11,0 6,6 23 12 32 18 NW 71 2 0,0
16.07.2019 21:00:00 12,1 7,5 21 11 30 16 WNW 57 60 0,0
16.07.2019 20:00:00 13,8 7,7 18 10 31 17 WNW 71 34 0,0
16.07.2019 19:00:00 13,1 7,5 18 10 31 17 WNW 59 21 0,0
16.07.2019 18:00:00 14,9 7,3 19 10 34 18 NW 64 50 0,0
16.07.2019 17:00:00 15,3 7,2 21 11 36 19 NW 53 60 0,0
16.07.2019 16:00:00 14,9 7,6 16 9 29 15 WNW 62 58 0,0
16.07.2019 15:00:00 14,4 5,0 18 10 34 18 W 67 60 0,0
16.07.2019 14:00:00 14,2 4,5 19 11 37 20 W 66 60 0,0
16.07.2019 13:00:00 13,1 6,9 23 13 35 19 W 75 60 0,0
16.07.2019 12:00:00 12,2 7,4 23 13 40 22 W 37 60 0,0
16.07.2019 11:00:00 11,6 6,4 18 10 35 19 W 75 60 0,0
16.07.2019 10:00:00 11,2 6,9 22 12 43 23 W 39 60 0,0
16.07.2019 09:00:00 10,1 7,1 26 14 40 21 W 31 57 0,0
16.07.2019 08:00:00 9,8 7,5 27 14 40 22 W 25 60 0,0
16.07.2019 07:00:00 9,7 7,5 24 13 34 18 W 23 15 0,0
16.07.2019 06:00:00 9,8 7,4 27 14 33 18 W 28 0 0,0
16.07.2019 05:00:00 10,2 7,1 24 13 30 16 W 31 0 0,0
16.07.2019 04:00:00 10,5 7,2 21 12 25 14 WSW 31 0 0,0
16.07.2019 03:00:00 10,5 7,3 19 10 21 12 WSW 35 0 0,0
16.07.2019 02:00:00 10,2 7,6 14 8 16 9 W 28 0 0,0
16.07.2019 01:00:00 10,1 6,9 9 5 13 7 WSW 35 0 0,0
16.07.2019 00:00:00 10,5 6,8 9 5 11 6 WSW 45 0 0,0
15.07.2019 23:00:00 11,0 6,4 7 4 10 5 NNW 41 0 0,0
15.07.2019 22:00:00 11,2 6,4 7 4 10 6 NNW 49 0 0,0
15.07.2019 21:00:00 11,7 6,5 8 4 15 8 NNW 59 51 0,0
15.07.2019 20:00:00 12,6 7,1 9 5 17 9 N 50 33 0,0
15.07.2019 19:00:00 12,9 7,6 9 5 16 9 NNW 53 34 0,0
15.07.2019 18:00:00 13,8 7,3 6 3 18 10 N 60 25 0,0
15.07.2019 17:00:00 13,9 8,6 8 4 17 9 N 50 20 0,0
15.07.2019 16:00:00 13,0 7,4 6 3 21 12 NNE 61 10 0,0
15.07.2019 15:00:00 13,4 7,5 8 4 23 12 NE 52 51 0,0
15.07.2019 14:00:00 12,7 8,5 14 8 25 13 NE 32 59 0,0
15.07.2019 13:00:00 11,2 8,1 13 7 23 12 NE 19 53 0,0
15.07.2019 12:00:00 9,2 8,2 13 7 22 12 NE 9 13 0,0
15.07.2019 11:00:00 9,0 8,5 11 6 22 12 ENE 6 8 0,0
15.07.2019 10:00:00 8,2 8,0 12 6 22 12 NE - 4 0,0
15.07.2019 09:00:00 8,1 8,0 11 6 26 14 NE - 2 0,0
15.07.2019 08:00:00 7,7 7,7 13 7 24 13 ENE - 0 0,0
15.07.2019 07:00:00 7,8 7,8 13 7 24 13 ENE - 0 0,0
15.07.2019 06:00:00 7,6 7,6 15 8 29 16 ENE 0,1 0 0,0
15.07.2019 05:00:00 7,9 7,9 16 9 30 16 ENE - 0 0,0
15.07.2019 04:00:00 7,9 7,9 17 9 29 16 ENE - 0 0,0
15.07.2019 03:00:00 8,2 8,2 19 10 31 17 ENE - 0 0,0
15.07.2019 02:00:00 8,4 8,4 21 11 36 19 ENE - 0 0,0
15.07.2019 01:00:00 8,3 8,3 19 11 36 20 NE - 0 0,0
15.07.2019 00:00:00 8,7 8,7 18 10 28 15 NE - 0 0,0
14.07.2019 23:00:00 8,7 8,7 15 8 25 14 NE 0,1 0 0,0
14.07.2019 22:00:00 8,8 8,8 16 9 25 13 NE 0,1 0 0,1
14.07.2019 21:00:00 8,5 6,2 16 9 23 13 NE 17 4 0,0
14.07.2019 20:00:00 9,7 9,6 11 6 18 10 NE 0,1 0 0,4
14.07.2019 19:00:00 10,2 8,9 8 4 15 8 NE 38 3 0,0
14.07.2019 18:00:00 11,0 9,9 12 6 20 11 N 19 26 0,0
14.07.2019 17:00:00 9,8 9,3 11 6 16 9 N 0,2 4 0,2
14.07.2019 16:00:00 9,5 9,3 14 7 28 15 N 0,2 0 5,0
14.07.2019 15:00:00 10,3 8,9 18 10 26 14 N 17 33 0,0
14.07.2019 14:00:00 12,4 9,9 13 7 19 10 NNW 34 10 0,0
14.07.2019 13:00:00 10,7 8,8 9 5 15 8 NNW 35 1 0,0
14.07.2019 12:00:00 9,6 8,5 6 3 13 7 N 23 6 0,0
14.07.2019 11:00:00 9,4 7,8 5 3 11 6 NNE 34 0 0,0
14.07.2019 10:00:00 8,5 7,7 5 3 9 5 NE 13 0 0,0
14.07.2019 09:00:00 8,5 7,6 3 1 6 4 NE 5 0 0,0
14.07.2019 08:00:00 8,2 6,4 5 3 10 5 ENE 47 0 0,0
14.07.2019 07:00:00 7,8 6,1 6 4 15 8 NE 70 0 0,0
14.07.2019 06:00:00 7,4 6,1 9 5 15 8 N 63 0 0,0
14.07.2019 05:00:00 7,0 5,5 11 6 18 10 N 75 0 0,0
14.07.2019 04:00:00 7,4 7,3 12 7 23 13 NNW 0,3 0 0,0
14.07.2019 03:00:00 8,2 8,2 15 8 27 15 NW 0,1 0 0,1
14.07.2019 02:00:00 8,5 8,5 17 9 36 19 NNW - 0 0,0
14.07.2019 01:00:00 8,4 8,4 27 15 39 21 NNW - 0 0,4
14.07.2019 00:00:00 8,7 8,7 29 16 42 23 NNW - 0 0,1
13.07.2019 23:00:00 8,8 8,8 30 16 42 23 NNW - 0 0,2
13.07.2019 22:00:00 8,9 8,9 22 12 35 19 NW - 0 0,0
13.07.2019 21:00:00 8,7 8,7 26 14 42 23 NW - 0 0,0

tt = Température de l'air
td = dewpoint
ff = Vitesse du vent
fx = gusts
dd = Direction du vent
vv = visibility
sd = Ensoleillement
rr = Quantités de précipitations

stations d'obs. à proximité